LGKRLGIR

Guest
Details From LGKR - IOANNIS KAPODISTRIAS INTL
To LGIR - Iraklion - Nizos Kazantzakis
Flight Number -
Tags decoded
Created
Modified
Stats Distance 360 nm / 667 km
Max Altitude 0 ft / 0 m
Waypoints 4
Social Downloads 0
Likes 0
Share VATSIM

Download

Looking for another format? Having issues loading an existing format? Contact us
Advertisement - Login to hide

Notes

Requested: LGKR MALED UA14 ARA UL612 TRL UJ65 BAVES LGIR Unmatched points: MALED UA14 UJ65 BAVES

Route

LGKR ARA UL612 TRL LGIR

ID Type Via Altitude Latitude Longitude Leg Dist Tot Dist Heading (true) Name
O LGKR APT - 0 ft / 0 m 39.60178˚ 19.91191˚ - 0 nm - IOANNIS KAPODISTRIAS INTL
ARA VOR - 0 ft / 0 m 38.10972˚ 21.42528˚ 114 nm 114 nm 141° / 142° ARAXOS VOR-DME
TRL VOR UL612 (AWY-HI) 0 ft / 0 m 37.40275˚ 22.33963˚ 60 nm 174 nm 134° / 135° TRIPOLIS VOR-DME
O LGIR APT - 0 ft / 0 m 35.33949˚ 25.18012˚ 184 nm 359 nm 131° / 133° Iraklion - Nizos Kazantzakis

Altitude Profile

Advertisement - Login to hide

Weather


0- 5 10 15 20 25 30 35+ Temperature / ° C

Clouds and Precipitation
Forecast for 2017-12-17 18:00 UTC. Updated 23 minutes ago

Ground ~20,000 ft ~40,000 ft Winds

LGKR

Details ICAO LGKR (CFU)
Name IOANNIS KAPODISTRIAS INTL
Region Greece
Timezone Europe/Athens (UTC+2.0)
Stats Elevation 6 ft / 2 m (AMSL)
Location 39.601779° 19.911908°
Runways 1
Magnetic Variation 4.099° E

METAR

LGKR 171720Z 00000KT 9999 SCT025 09/08 Q1013 NOSIG

Decode

TAF

TAF LGKR 171100Z 1712/1812 33010KT 9999 SCT030 SCT080 PROB30 TEMPO 1712/1803 5000 RA SCT010 BKN025 BECMG 1713/1715 VRB05KT

Decode

Departure Runways

ID Width Length Bearing (true) Bearing (mag) Surface Threshold Offset Overrun Length
17 148 ft / 45 m 7,815 ft / 2,382 m 168.81° 164.71° Asphalt 1,348 ft / 411 m 0 ft / 0 m
35 148 ft / 45 m 7,815 ft / 2,382 m 348.81° 344.71° Asphalt 213 ft / 65 m 0 ft / 0 m

LGIR

Details ICAO LGIR (HER)
Name Iraklion - Nizos Kazantzakis
Region Greece
Timezone Europe/Athens (UTC+2.0)
Stats Elevation 115 ft / 35 m (AMSL)
Location 35.339487° 25.180120°
Runways 3
Magnetic Variation 4.380° E

METAR

LGIR 171720Z 18007KT 9999 SCT025 16/12 Q1014 NOSIG

Decode

TAF

TAF LGIR 171100Z 1712/1812 20010KT 9999 FEW020 SCT080 PROB30 TEMPO 1712/1724 5000 RA SCT015 BKN025 BECMG 1712/1714 29013KT BECMG 1802/1804 VRB05KT

Decode

Destination Runways

ID Width Length Bearing (true) Bearing (mag) Surface Threshold Offset Overrun Length
09 148 ft / 45 m 8,755 ft / 2,669 m 94.84° 90.46° Asphalt 1,565 ft / 477 m 200 ft / 61 m
12 164 ft / 50 m 5,136 ft / 1,566 m 126.27° 121.89° Asphalt 499 ft / 152 m 190 ft / 58 m
18 131 ft / 40 m 2,607 ft / 795 m 180.40° 176.02° Asphalt 0 ft / 0 m 0 ft / 0 m
27 148 ft / 45 m 8,755 ft / 2,669 m 274.86° 270.48° Asphalt 0 ft / 0 m 210 ft / 64 m
30 164 ft / 50 m 5,136 ft / 1,566 m 306.28° 301.90° Asphalt 0 ft / 0 m 0 ft / 0 m
36 131 ft / 40 m 2,607 ft / 795 m 0.40° 356.02° Asphalt 328 ft / 100 m 0 ft / 0 m

Popular Alternatives